This is the latest recevied weather packets stored in our database for station/object ANJALA. If no packets are shown the sender has not sent any weather packets the latest 10 day(s).
| Time | Temp. | Humidity | Pressure | Rain* | Wind** | Luminosity | Snow |
|---|---|---|---|---|---|---|---|
| 1777496808 | -0.56° C | 72% | - | 0 mm | - | - | - |
| 1777495608 | -0.56° C | 72% | - | 0 mm | - | - | - |
| 1777494408 | 0° C | 69% | - | 0 mm | - | - | - |
| 1777493207 | 0.56° C | 68% | - | 0 mm | - | - | - |
| 1777492007 | 1.11° C | 65% | - | 0 mm | - | - | - |
| 1777490808 | 1.67° C | 61% | - | 0 mm | - | - | - |
| 1777489608 | 2.78° C | 57% | - | 0 mm | - | - | - |
| 1777488407 | 2.78° C | 53% | - | 0 mm | - | - | - |
| 1777487207 | 3.89° C | 49% | - | 0 mm | - | - | - |
| 1777486007 | 5° C | 45% | - | 0 mm | - | - | - |
| 1777484807 | 6.67° C | 36% | - | 0 mm | - | - | - |
| 1777483607 | 7.78° C | 33% | - | 0 mm | - | - | - |
| 1777482407 | 8.89° C | 29% | - | 0 mm | - | - | - |
| 1777481207 | 8.89° C | 30% | - | 0 mm | - | - | - |
| 1777480007 | 9.44° C | 28% | - | 0 mm | - | - | - |
| 1777478806 | 9.44° C | 28% | - | 0 mm | - | - | - |
| 1777477607 | 9.44° C | 29% | - | 0 mm | - | - | - |
| 1777476407 | 9.44° C | 28% | - | 0 mm | - | - | - |
| 1777475207 | 9.44° C | 28% | - | 0 mm | - | - | - |
| 1777474007 | 9.44° C | 29% | - | 0 mm | - | - | - |
| 1777472807 | 9.44° C | 32% | - | 0 mm | - | - | - |
| 1777471606 | 8.89° C | 30% | - | 0 mm | - | - | - |
| 1777470406 | 8.89° C | 31% | - | 0 mm | - | - | - |
| 1777469206 | 8.33° C | 31% | - | 0 mm | - | - | - |
| 1777468006 | 8.33° C | 33% | - | 0 mm | - | - | - |
* Rain latest hour (hover to see other rain measurements)
** Current wind speed in m/s (hover to see current wind gust speed)